sensor_id;sensor_type;location;lat;lon;timestamp;pressure;altitude;pressure_sealevel;temperature;humidity
84888;BME280;75150;54.494;18.518;2024-03-22T00:01:46;100707.66;;;2.98;91.66
84888;BME280;75150;54.494;18.518;2024-03-22T00:03:49;100705.88;;;2.99;91.76
84888;BME280;75150;54.494;18.518;2024-03-22T00:05:50;100704.13;;;2.99;91.35
84888;BME280;75150;54.494;18.518;2024-03-22T00:07:52;100705.03;;;2.98;91.20
84888;BME280;75150;54.494;18.518;2024-03-22T00:09:53;100698.94;;;2.98;91.16
84888;BME280;75150;54.494;18.518;2024-03-22T00:11:55;100697.19;;;2.98;91.60
84888;BME280;75150;54.494;18.518;2024-03-22T00:13:56;100690.25;;;2.97;91.68
84888;BME280;75150;54.494;18.518;2024-03-22T00:15:58;100690.38;;;2.94;91.33
84888;BME280;75150;54.494;18.518;2024-03-22T00:17:59;100681.63;;;2.95;91.29
84888;BME280;75150;54.494;18.518;2024-03-22T00:20:02;100682.47;;;2.96;91.61
84888;BME280;75150;54.494;18.518;2024-03-22T00:22:04;100678.94;;;2.97;91.74
84888;BME280;75150;54.494;18.518;2024-03-22T00:24:05;100680.56;;;2.99;91.42
84888;BME280;75150;54.494;18.518;2024-03-22T00:26:07;100685.78;;;2.99;91.36
84888;BME280;75150;54.494;18.518;2024-03-22T00:28:08;100682.25;;;3.00;91.56
84888;BME280;75150;54.494;18.518;2024-03-22T00:30:10;100682.19;;;3.02;91.52
84888;BME280;75150;54.494;18.518;2024-03-22T00:32:11;100681.25;;;3.03;91.39
84888;BME280;75150;54.494;18.518;2024-03-22T00:34:13;100685.63;;;3.04;91.07
84888;BME280;75150;54.494;18.518;2024-03-22T00:36:15;100679.47;;;3.05;90.99
84888;BME280;75150;54.494;18.518;2024-03-22T00:38:17;100678.59;;;3.04;91.56
84888;BME280;75150;54.494;18.518;2024-03-22T00:40:18;100684.75;;;3.03;91.37
84888;BME280;75150;54.494;18.518;2024-03-22T00:42:20;100674.34;;;3.02;91.17
84888;BME280;75150;54.494;18.518;2024-03-22T00:44:21;100673.47;;;3.01;91.39
84888;BME280;75150;54.494;18.518;2024-03-22T00:46:23;100673.56;;;3.00;91.33
84888;BME280;75150;54.494;18.518;2024-03-22T00:48:24;100676.25;;;2.98;91.32
84888;BME280;75150;54.494;18.518;2024-03-22T00:50:26;100677.09;;;2.99;91.28
84888;BME280;75150;54.494;18.518;2024-03-22T00:52:28;100669.25;;;2.99;90.91
84888;BME280;75150;54.494;18.518;2024-03-22T00:54:30;100664.00;;;2.99;91.19
84888;BME280;75150;54.494;18.518;2024-03-22T00:56:31;100661.31;;;3.00;91.17
84888;BME280;75150;54.494;18.518;2024-03-22T00:58:33;100658.63;;;3.02;91.17
84888;BME280;75150;54.494;18.518;2024-03-22T01:00:34;100655.97;;;3.03;91.62
84888;BME280;75150;54.494;18.518;2024-03-22T01:02:36;100661.06;;;3.06;91.06
84888;BME280;75150;54.494;18.518;2024-03-22T01:04:37;100664.47;;;3.08;91.10
84888;BME280;75150;54.494;18.518;2024-03-22T01:06:39;100660.91;;;3.09;91.32
84888;BME280;75150;54.494;18.518;2024-03-22T01:08:41;100653.91;;;3.10;91.00
84888;BME280;75150;54.494;18.518;2024-03-22T01:10:43;100659.94;;;3.12;91.12
84888;BME280;75150;54.494;18.518;2024-03-22T01:12:44;100659.94;;;3.12;91.41
84888;BME280;75150;54.494;18.518;2024-03-22T01:14:46;100644.22;;;3.12;91.17
84888;BME280;75150;54.494;18.518;2024-03-22T01:16:47;100650.31;;;3.12;91.36
84888;BME280;75150;54.494;18.518;2024-03-22T01:18:49;100649.44;;;3.12;91.02
84888;BME280;75150;54.494;18.518;2024-03-22T01:20:50;100652.06;;;3.12;90.82
84888;BME280;75150;54.494;18.518;2024-03-22T01:22:51;100649.53;;;3.10;91.10
84888;BME280;75150;54.494;18.518;2024-03-22T01:24:54;100661.69;;;3.11;91.27
84888;BME280;75150;54.494;18.518;2024-03-22T01:26:56;100649.59;;;3.09;91.42
84888;BME280;75150;54.494;18.518;2024-03-22T01:28:57;100653.13;;;3.08;91.44
84888;BME280;75150;54.494;18.518;2024-03-22T01:30:58;100652.28;;;3.07;91.51
84888;BME280;75150;54.494;18.518;2024-03-22T01:33:00;100646.34;;;3.04;91.15
84888;BME280;75150;54.494;18.518;2024-03-22T01:35:01;100647.22;;;3.03;91.47
84888;BME280;75150;54.494;18.518;2024-03-22T01:37:03;100645.59;;;3.00;91.22
84888;BME280;75150;54.494;18.518;2024-03-22T01:39:04;100639.59;;;2.98;91.65
84888;BME280;75150;54.494;18.518;2024-03-22T01:41:07;100643.22;;;2.96;91.60
84888;BME280;75150;54.494;18.518;2024-03-22T01:43:08;100645.91;;;2.94;91.81
84888;BME280;75150;54.494;18.518;2024-03-22T01:45:11;100652.97;;;2.92;91.89
84888;BME280;75150;54.494;18.518;2024-03-22T01:47:15;100645.28;;;2.87;91.46
84888;BME280;75150;54.494;18.518;2024-03-22T01:49:16;100644.59;;;2.84;91.59
84888;BME280;75150;54.494;18.518;2024-03-22T01:51:18;100637.72;;;2.81;91.53
84888;BME280;75150;54.494;18.518;2024-03-22T01:53:19;100631.56;;;2.82;92.00
84888;BME280;75150;54.494;18.518;2024-03-22T01:55:21;100627.13;;;2.84;92.12
84888;BME280;75150;54.494;18.518;2024-03-22T01:57:24;100632.22;;;2.87;92.13
84888;BME280;75150;54.494;18.518;2024-03-22T01:59:26;100624.22;;;2.90;91.50
84888;BME280;75150;54.494;18.518;2024-03-22T02:01:28;100624.97;;;2.94;91.97
84888;BME280;75150;54.494;18.518;2024-03-22T02:03:30;100638.75;;;2.98;91.66
84888;BME280;75150;54.494;18.518;2024-03-22T02:05:31;100636.06;;;2.99;91.62
84888;BME280;75150;54.494;18.518;2024-03-22T02:07:32;100628.03;;;3.04;91.73
84888;BME280;75150;54.494;18.518;2024-03-22T02:09:34;100620.94;;;3.06;92.01
84888;BME280;75150;54.494;18.518;2024-03-22T02:11:36;100623.50;;;3.07;91.64
84888;BME280;75150;54.494;18.518;2024-03-22T02:13:38;100621.56;;;3.11;91.45
84888;BME280;75150;54.494;18.518;2024-03-22T02:15:40;100610.19;;;3.12;91.79
84888;BME280;75150;54.494;18.518;2024-03-22T02:17:41;100606.53;;;3.16;91.90
84888;BME280;75150;54.494;18.518;2024-03-22T02:19:43;100616.00;;;3.18;91.52
84888;BME280;75150;54.494;18.518;2024-03-22T02:21:44;100610.69;;;3.20;91.28
84888;BME280;75150;54.494;18.518;2024-03-22T02:23:47;100617.56;;;3.22;91.39
84888;BME280;75150;54.494;18.518;2024-03-22T02:25:48;100611.41;;;3.23;91.25
84888;BME280;75150;54.494;18.518;2024-03-22T02:27:50;100604.31;;;3.26;91.27
84888;BME280;75150;54.494;18.518;2024-03-22T02:29:51;100605.16;;;3.26;91.20
84888;BME280;75150;54.494;18.518;2024-03-22T02:31:53;100604.31;;;3.26;91.14
84888;BME280;75150;54.494;18.518;2024-03-22T02:33:54;100596.47;;;3.26;91.41
84888;BME280;75150;54.494;18.518;2024-03-22T02:35:56;100588.59;;;3.26;91.46
84888;BME280;75150;54.494;18.518;2024-03-22T02:37:57;100589.44;;;3.26;91.07
84888;BME280;75150;54.494;18.518;2024-03-22T02:40:00;100585.94;;;3.27;90.99
84888;BME280;75150;54.494;18.518;2024-03-22T02:42:02;100585.94;;;3.27;91.00
84888;BME280;75150;54.494;18.518;2024-03-22T02:44:03;100586.78;;;3.28;91.17
84888;BME280;75150;54.494;18.518;2024-03-22T02:46:05;100584.94;;;3.30;91.28
84888;BME280;75150;54.494;18.518;2024-03-22T02:48:07;100589.34;;;3.29;91.52
84888;BME280;75150;54.494;18.518;2024-03-22T02:50:08;100587.56;;;3.30;91.30
84888;BME280;75150;54.494;18.518;2024-03-22T02:52:10;100584.09;;;3.29;91.24
84888;BME280;75150;54.494;18.518;2024-03-22T02:54:11;100589.25;;;3.31;91.33
84888;BME280;75150;54.494;18.518;2024-03-22T02:56:14;100583.94;;;3.32;91.06
84888;BME280;75150;54.494;18.518;2024-03-22T02:58:17;100579.56;;;3.33;91.32
84888;BME280;75150;54.494;18.518;2024-03-22T03:00:18;100587.34;;;3.34;90.84
84888;BME280;75150;54.494;18.518;2024-03-22T03:02:20;100579.47;;;3.34;90.83
84888;BME280;75150;54.494;18.518;2024-03-22T03:04:21;100574.31;;;3.33;90.92
84888;BME280;75150;54.494;18.518;2024-03-22T03:06:22;100573.47;;;3.32;90.84
84888;BME280;75150;54.494;18.518;2024-03-22T03:08:24;100570.06;;;3.30;91.25
84888;BME280;75150;54.494;18.518;2024-03-22T03:10:26;100567.59;;;3.27;90.93
84888;BME280;75150;54.494;18.518;2024-03-22T03:12:29;100572.84;;;3.27;91.42
84888;BME280;75150;54.494;18.518;2024-03-22T03:14:30;100571.19;;;3.24;91.40
84888;BME280;75150;54.494;18.518;2024-03-22T03:16:32;100561.63;;;3.23;91.37
84888;BME280;75150;54.494;18.518;2024-03-22T03:18:33;100558.31;;;3.20;91.09
84888;BME280;75150;54.494;18.518;2024-03-22T03:20:35;100562.72;;;3.19;91.01
84888;BME280;75150;54.494;18.518;2024-03-22T03:22:36;100558.31;;;3.20;91.11
84888;BME280;75150;54.494;18.518;2024-03-22T03:24:38;100566.25;;;3.18;91.07
84888;BME280;75150;54.494;18.518;2024-03-22T03:26:39;100557.56;;;3.18;91.28
84888;BME280;75150;54.494;18.518;2024-03-22T03:28:42;100556.63;;;3.19;91.16
84888;BME280;75150;54.494;18.518;2024-03-22T03:30:43;100560.94;;;3.20;91.10
84888;BME280;75150;54.494;18.518;2024-03-22T03:32:45;100565.25;;;3.21;91.57
84888;BME280;75150;54.494;18.518;2024-03-22T03:34:46;100560.88;;;3.21;91.66
84888;BME280;75150;54.494;18.518;2024-03-22T03:36:48;100561.72;;;3.22;91.41
84888;BME280;75150;54.494;18.518;2024-03-22T03:38:49;100560.03;;;3.21;90.95
84888;BME280;75150;54.494;18.518;2024-03-22T03:40:51;100554.78;;;3.21;91.10
84888;BME280;75150;54.494;18.518;2024-03-22T03:42:52;100558.25;;;3.21;91.39
84888;BME280;75150;54.494;18.518;2024-03-22T03:44:55;100553.78;;;3.23;91.47
84888;BME280;75150;54.494;18.518;2024-03-22T03:46:56;100556.31;;;3.25;91.40
84888;BME280;75150;54.494;18.518;2024-03-22T03:48:58;100557.97;;;3.28;91.44
84888;BME280;75150;54.494;18.518;2024-03-22T03:50:59;100550.91;;;3.30;91.19
84888;BME280;75150;54.494;18.518;2024-03-22T03:53:01;100538.66;;;3.30;91.21
84888;BME280;75150;54.494;18.518;2024-03-22T03:55:02;100534.97;;;3.34;91.20
84888;BME280;75150;54.494;18.518;2024-03-22T03:57:04;100537.50;;;3.36;90.87
84888;BME280;75150;54.494;18.518;2024-03-22T03:59:05;100538.34;;;3.36;90.96
84888;BME280;75150;54.494;18.518;2024-03-22T04:01:09;100537.34;;;3.39;91.30
84888;BME280;75150;54.494;18.518;2024-03-22T04:03:10;100532.06;;;3.40;91.58
84888;BME280;75150;54.494;18.518;2024-03-22T04:05:12;100530.28;;;3.41;91.50
84888;BME280;75150;54.494;18.518;2024-03-22T04:07:13;100525.06;;;3.41;91.39
84888;BME280;75150;54.494;18.518;2024-03-22T04:09:14;100522.44;;;3.41;91.09
84888;BME280;75150;54.494;18.518;2024-03-22T04:11:16;100519.81;;;3.41;91.45
84888;BME280;75150;54.494;18.518;2024-03-22T04:13:17;100522.44;;;3.41;90.99
84888;BME280;75150;54.494;18.518;2024-03-22T04:15:18;100515.50;;;3.40;91.28
84888;BME280;75150;54.494;18.518;2024-03-22T04:17:21;100522.44;;;3.41;91.24
84888;BME280;75150;54.494;18.518;2024-03-22T04:19:23;100525.91;;;3.41;90.85
84888;BME280;75150;54.494;18.518;2024-03-22T04:21:24;100523.28;;;3.41;90.88
84888;BME280;75150;54.494;18.518;2024-03-22T04:23:26;100513.72;;;3.40;91.30
84888;BME280;75150;54.494;18.518;2024-03-22T04:25:27;100517.28;;;3.39;91.36
84888;BME280;75150;54.494;18.518;2024-03-22T04:27:29;100512.94;;;3.38;91.09
84888;BME280;75150;54.494;18.518;2024-03-22T04:29:30;100508.50;;;3.40;91.27
84888;BME280;75150;54.494;18.518;2024-03-22T04:31:31;100508.53;;;3.39;91.22
84888;BME280;75150;54.494;18.518;2024-03-22T04:33:35;100501.56;;;3.39;90.93
84888;BME280;75150;54.494;18.518;2024-03-22T04:35:37;100504.09;;;3.41;91.04
84888;BME280;75150;54.494;18.518;2024-03-22T04:37:39;100499.63;;;3.43;91.15
84888;BME280;75150;54.494;18.518;2024-03-22T04:39:40;100499.63;;;3.43;91.04
84888;BME280;75150;54.494;18.518;2024-03-22T04:41:42;100495.16;;;3.45;91.10
84888;BME280;75150;54.494;18.518;2024-03-22T04:43:43;100496.00;;;3.45;91.42
84888;BME280;75150;54.494;18.518;2024-03-22T04:45:45;100496.78;;;3.47;91.18
84888;BME280;75150;54.494;18.518;2024-03-22T04:47:47;100500.25;;;3.48;91.35
84888;BME280;75150;54.494;18.518;2024-03-22T04:49:50;100493.16;;;3.50;91.17
84888;BME280;75150;54.494;18.518;2024-03-22T04:51:51;100500.81;;;3.55;91.38
84888;BME280;75150;54.494;18.518;2024-03-22T04:53:52;100492.88;;;3.56;91.24
84888;BME280;75150;54.494;18.518;2024-03-22T04:55:54;100499.72;;;3.59;91.21
84888;BME280;75150;54.494;18.518;2024-03-22T04:57:55;100496.94;;;3.62;91.15
84888;BME280;75150;54.494;18.518;2024-03-22T04:59:56;100505.59;;;3.64;91.25
84888;BME280;75150;54.494;18.518;2024-03-22T05:01:58;100494.97;;;3.67;91.29
84888;BME280;75150;54.494;18.518;2024-03-22T05:03:59;100496.66;;;3.68;91.14
84888;BME280;75150;54.494;18.518;2024-03-22T05:06:02;100498.28;;;3.70;90.72
84888;BME280;75150;54.494;18.518;2024-03-22T05:08:04;100504.28;;;3.72;91.16
84888;BME280;75150;54.494;18.518;2024-03-22T05:10:06;100496.25;;;3.75;91.12
84888;BME280;75150;54.494;18.518;2024-03-22T05:12:08;100493.63;;;3.75;90.75
84888;BME280;75150;54.494;18.518;2024-03-22T05:14:09;100488.34;;;3.77;90.89
84888;BME280;75150;54.494;18.518;2024-03-22T05:16:11;100486.41;;;3.80;90.75
84888;BME280;75150;54.494;18.518;2024-03-22T05:18:12;100484.56;;;3.82;90.99
84888;BME280;75150;54.494;18.518;2024-03-22T05:20:13;100490.50;;;3.86;90.61
84888;BME280;75150;54.494;18.518;2024-03-22T05:22:16;100475.47;;;3.90;90.82
84888;BME280;75150;54.494;18.518;2024-03-22T05:24:18;100477.09;;;3.92;90.84
84888;BME280;75150;54.494;18.518;2024-03-22T05:26:19;100475.31;;;3.93;90.63
84888;BME280;75150;54.494;18.518;2024-03-22T05:28:21;100475.22;;;3.94;90.85
84888;BME280;75150;54.494;18.518;2024-03-22T05:30:22;100463.81;;;3.95;90.46
84888;BME280;75150;54.494;18.518;2024-03-22T05:32:24;100464.66;;;3.96;90.72
84888;BME280;75150;54.494;18.518;2024-03-22T05:34:25;100463.75;;;3.97;90.45
84888;BME280;75150;54.494;18.518;2024-03-22T05:36:26;100465.34;;;3.99;90.85
84888;BME280;75150;54.494;18.518;2024-03-22T05:38:29;100467.06;;;4.00;90.53
84888;BME280;75150;54.494;18.518;2024-03-22T05:40:31;100465.22;;;4.02;91.03
84888;BME280;75150;54.494;18.518;2024-03-22T05:42:32;100470.28;;;4.05;90.62
84888;BME280;75150;54.494;18.518;2024-03-22T05:44:33;100464.97;;;4.07;91.10
84888;BME280;75150;54.494;18.518;2024-03-22T05:46:35;100456.09;;;4.09;90.68
84888;BME280;75150;54.494;18.518;2024-03-22T05:48:36;100467.28;;;4.13;90.75
84888;BME280;75150;54.494;18.518;2024-03-22T05:50:38;100463.50;;;4.19;91.20
84888;BME280;75150;54.494;18.518;2024-03-22T05:52:39;100459.78;;;4.23;90.54
84888;BME280;75150;54.494;18.518;2024-03-22T05:54:42;100457.00;;;4.26;90.98
84888;BME280;75150;54.494;18.518;2024-03-22T05:56:43;100458.63;;;4.28;90.93
84888;BME280;75150;54.494;18.518;2024-03-22T05:58:45;100449.75;;;4.31;90.97
84888;BME280;75150;54.494;18.518;2024-03-22T06:00:46;100444.31;;;4.34;90.82
84888;BME280;75150;54.494;18.518;2024-03-22T06:02:48;100452.06;;;4.37;90.85
84888;BME280;75150;54.494;18.518;2024-03-22T06:04:49;100451.97;;;4.38;90.73
84888;BME280;75150;54.494;18.518;2024-03-22T06:06:51;100441.38;;;4.40;90.84
84888;BME280;75150;54.494;18.518;2024-03-22T06:08:52;100445.53;;;4.44;90.67
84888;BME280;75150;54.494;18.518;2024-03-22T06:10:55;100450.78;;;4.44;90.90
84888;BME280;75150;54.494;18.518;2024-03-22T06:12:56;100455.28;;;4.42;90.58
84888;BME280;75150;54.494;18.518;2024-03-22T06:14:58;100441.03;;;4.46;90.93
84888;BME280;75150;54.494;18.518;2024-03-22T06:16:59;100444.44;;;4.48;90.71
84888;BME280;75150;54.494;18.518;2024-03-22T06:19:01;100438.28;;;4.49;90.76
84888;BME280;75150;54.494;18.518;2024-03-22T06:21:03;100443.44;;;4.51;90.75
84888;BME280;75150;54.494;18.518;2024-03-22T06:23:04;100436.41;;;4.51;90.54
84888;BME280;75150;54.494;18.518;2024-03-22T06:25:06;100438.97;;;4.53;91.04
84888;BME280;75150;54.494;18.518;2024-03-22T06:27:09;100438.13;;;4.52;90.64
84888;BME280;75150;54.494;18.518;2024-03-22T06:29:10;100432.88;;;4.52;90.53
84888;BME280;75150;54.494;18.518;2024-03-22T06:31:12;100437.34;;;4.50;90.43
84888;BME280;75150;54.494;18.518;2024-03-22T06:33:13;100437.50;;;4.47;90.66
84888;BME280;75150;54.494;18.518;2024-03-22T06:35:15;100439.34;;;4.45;90.60
84888;BME280;75150;54.494;18.518;2024-03-22T06:37:16;100430.56;;;4.46;90.67
84888;BME280;75150;54.494;18.518;2024-03-22T06:39:17;100419.31;;;4.44;90.62
84888;BME280;75150;54.494;18.518;2024-03-22T06:41:19;100421.84;;;4.46;90.55
84888;BME280;75150;54.494;18.518;2024-03-22T06:43:22;100425.22;;;4.48;90.44
84888;BME280;75150;54.494;18.518;2024-03-22T06:45:23;100422.47;;;4.51;90.85
84888;BME280;75150;54.494;18.518;2024-03-22T06:47:25;100416.19;;;4.53;90.69
84888;BME280;75150;54.494;18.518;2024-03-22T06:49:26;100413.47;;;4.55;90.59
84888;BME280;75150;54.494;18.518;2024-03-22T06:51:28;100407.28;;;4.56;90.23
84888;BME280;75150;54.494;18.518;2024-03-22T06:53:29;100408.13;;;4.56;90.23
84888;BME280;75150;54.494;18.518;2024-03-22T06:55:30;100396.13;;;4.52;90.38
84888;BME280;75150;54.494;18.518;2024-03-22T06:57:32;100392.75;;;4.50;90.34
84888;BME280;75150;54.494;18.518;2024-03-22T06:59:35;100397.16;;;4.50;90.51
84888;BME280;75150;54.494;18.518;2024-03-22T07:01:36;100394.44;;;4.51;90.21
84888;BME280;75150;54.494;18.518;2024-03-22T07:03:38;100384.69;;;4.53;90.29
84888;BME280;75150;54.494;18.518;2024-03-22T07:05:39;100387.50;;;4.50;90.30
84888;BME280;75150;54.494;18.518;2024-03-22T07:07:41;100379.53;;;4.52;90.33
84888;BME280;75150;54.494;18.518;2024-03-22T07:09:42;100374.97;;;4.55;90.81
84888;BME280;75150;54.494;18.518;2024-03-22T07:11:44;100368.53;;;4.61;90.37
84888;BME280;75150;54.494;18.518;2024-03-22T07:13:45;100367.25;;;4.68;91.08
84888;BME280;75150;54.494;18.518;2024-03-22T07:15:48;100362.69;;;4.71;90.28
84888;BME280;75150;54.494;18.518;2024-03-22T07:17:49;100355.59;;;4.74;90.39
84888;BME280;75150;54.494;18.518;2024-03-22T07:19:51;100355.50;;;4.75;90.14
84888;BME280;75150;54.494;18.518;2024-03-22T07:21:52;100358.22;;;4.74;89.99
84888;BME280;75150;54.494;18.518;2024-03-22T07:23:54;100352.97;;;4.74;90.16
84888;BME280;75150;54.494;18.518;2024-03-22T07:25:55;100346.16;;;4.69;90.28
84888;BME280;75150;54.494;18.518;2024-03-22T07:27:57;100345.41;;;4.67;89.96
84888;BME280;75150;54.494;18.518;2024-03-22T07:29:58;100336.22;;;4.60;89.59
84888;BME280;75150;54.494;18.518;2024-03-22T07:32:01;100337.91;;;4.61;90.13
84888;BME280;75150;54.494;18.518;2024-03-22T07:34:02;100333.50;;;4.62;90.14
84888;BME280;75150;54.494;18.518;2024-03-22T07:36:04;100342.22;;;4.62;89.40
84888;BME280;75150;54.494;18.518;2024-03-22T07:38:06;100336.78;;;4.65;90.07
84888;BME280;75150;54.494;18.518;2024-03-22T07:40:08;100326.88;;;4.70;89.95
84888;BME280;75150;54.494;18.518;2024-03-22T07:42:09;100332.91;;;4.73;89.24
84888;BME280;75150;54.494;18.518;2024-03-22T07:44:11;100326.72;;;4.74;89.93
84888;BME280;75150;54.494;18.518;2024-03-22T07:46:12;100316.97;;;4.76;88.79
84888;BME280;75150;54.494;18.518;2024-03-22T07:48:15;100329.34;;;4.74;89.25
84888;BME280;75150;54.494;18.518;2024-03-22T07:50:17;100319.59;;;4.76;89.58
84888;BME280;75150;54.494;18.518;2024-03-22T07:52:18;100313.50;;;4.75;89.42
84888;BME280;75150;54.494;18.518;2024-03-22T07:54:19;100310.97;;;4.74;89.73
84888;BME280;75150;54.494;18.518;2024-03-22T07:56:21;100311.63;;;4.77;90.23
84888;BME280;75150;54.494;18.518;2024-03-22T07:58:22;100311.25;;;4.83;89.56
84888;BME280;75150;54.494;18.518;2024-03-22T08:00:24;100319.00;;;4.86;89.62
84888;BME280;75150;54.494;18.518;2024-03-22T08:02:25;100311.69;;;4.91;88.65
84888;BME280;75150;54.494;18.518;2024-03-22T08:04:28;100313.88;;;4.99;89.88
84888;BME280;75150;54.494;18.518;2024-03-22T08:06:30;100312.50;;;5.08;89.55
84888;BME280;75150;54.494;18.518;2024-03-22T08:08:31;100304.19;;;5.15;88.88
84888;BME280;75150;54.494;18.518;2024-03-22T08:10:33;100306.53;;;5.20;89.15
84888;BME280;75150;54.494;18.518;2024-03-22T08:12:34;100294.63;;;5.28;89.27
84888;BME280;75150;54.494;18.518;2024-03-22T08:14:36;100291.38;;;5.39;88.79
84888;BME280;75150;54.494;18.518;2024-03-22T08:16:37;100299.66;;;5.47;88.79
84888;BME280;75150;54.494;18.518;2024-03-22T08:18:38;100281.53;;;5.57;88.37
84888;BME280;75150;54.494;18.518;2024-03-22T08:20:41;100276.97;;;5.61;87.84
84888;BME280;75150;54.494;18.518;2024-03-22T08:22:43;100270.66;;;5.63;86.83
84888;BME280;75150;54.494;18.518;2024-03-22T08:24:44;100273.00;;;5.68;88.36
84888;BME280;75150;54.494;18.518;2024-03-22T08:26:45;100271.78;;;5.73;86.64
84888;BME280;75150;54.494;18.518;2024-03-22T08:28:47;100258.25;;;5.79;85.26
84888;BME280;75150;54.494;18.518;2024-03-22T08:30:49;100257.72;;;5.74;86.67
84888;BME280;75150;54.494;18.518;2024-03-22T08:32:51;100260.13;;;5.77;87.78
84888;BME280;75150;54.494;18.518;2024-03-22T08:34:52;100254.78;;;5.79;85.70
84888;BME280;75150;54.494;18.518;2024-03-22T08:36:55;100255.47;;;5.82;86.90
84888;BME280;75150;54.494;18.518;2024-03-22T08:38:56;100243.81;;;5.86;87.45
84888;BME280;75150;54.494;18.518;2024-03-22T08:40:58;100240.13;;;5.89;87.53
84888;BME280;75150;54.494;18.518;2024-03-22T08:42:59;100233.28;;;6.01;87.80
84888;BME280;75150;54.494;18.518;2024-03-22T08:45:01;100231.13;;;6.07;86.94
84888;BME280;75150;54.494;18.518;2024-03-22T08:47:02;100222.94;;;6.12;86.21
84888;BME280;75150;54.494;18.518;2024-03-22T08:49:04;100228.66;;;6.19;83.27
84888;BME280;75150;54.494;18.518;2024-03-22T08:51:05;100231.94;;;6.22;84.63
84888;BME280;75150;54.494;18.518;2024-03-22T08:53:08;100222.41;;;6.34;84.91
84888;BME280;75150;54.494;18.518;2024-03-22T08:55:09;100225.00;;;6.48;86.56
84888;BME280;75150;54.494;18.518;2024-03-22T08:57:11;100224.69;;;6.53;84.61
84888;BME280;75150;54.494;18.518;2024-03-22T08:59:12;100227.66;;;6.61;85.66
84888;BME280;75150;54.494;18.518;2024-03-22T09:01:14;100211.47;;;6.67;85.97
84888;BME280;75150;54.494;18.518;2024-03-22T09:03:15;100212.13;;;6.70;85.93
84888;BME280;75150;54.494;18.518;2024-03-22T09:05:17;100204.09;;;6.59;81.96
84888;BME280;75150;54.494;18.518;2024-03-22T09:07:18;100195.84;;;6.51;84.72
84888;BME280;75150;54.494;18.518;2024-03-22T09:09:21;100192.56;;;6.47;84.75
84888;BME280;75150;54.494;18.518;2024-03-22T09:11:23;100188.25;;;6.46;86.08
84888;BME280;75150;54.494;18.518;2024-03-22T09:13:25;100182.50;;;6.54;86.32
84888;BME280;75150;54.494;18.518;2024-03-22T09:15:27;100177.53;;;6.62;86.67
84888;BME280;75150;54.494;18.518;2024-03-22T09:17:29;100175.16;;;6.72;86.65
84888;BME280;75150;54.494;18.518;2024-03-22T09:19:30;100167.25;;;6.72;84.91
84888;BME280;75150;54.494;18.518;2024-03-22T09:21:31;100165.06;;;6.79;87.19
84888;BME280;75150;54.494;18.518;2024-03-22T09:23:33;100165.78;;;6.81;85.16
84888;BME280;75150;54.494;18.518;2024-03-22T09:25:36;100158.75;;;6.81;84.49
84888;BME280;75150;54.494;18.518;2024-03-22T09:27:37;100155.44;;;6.78;82.99
84888;BME280;75150;54.494;18.518;2024-03-22T09:29:39;100146.94;;;6.87;86.26
84888;BME280;75150;54.494;18.518;2024-03-22T09:31:40;100145.03;;;6.89;82.74
84888;BME280;75150;54.494;18.518;2024-03-22T09:33:42;100145.69;;;6.92;85.22
84888;BME280;75150;54.494;18.518;2024-03-22T09:35:44;100152.22;;;6.99;86.49
84888;BME280;75150;54.494;18.518;2024-03-22T09:37:45;100141.56;;;7.01;85.53
84888;BME280;75150;54.494;18.518;2024-03-22T09:39:47;100146.41;;;6.94;85.32
84888;BME280;75150;54.494;18.518;2024-03-22T09:41:50;100147.88;;;6.98;85.67
84888;BME280;75150;54.494;18.518;2024-03-22T09:43:52;100135.66;;;6.97;85.96
84888;BME280;75150;54.494;18.518;2024-03-22T09:45:54;100143.47;;;6.99;85.98
84888;BME280;75150;54.494;18.518;2024-03-22T09:47:56;100149.91;;;6.95;86.01
84888;BME280;75150;54.494;18.518;2024-03-22T09:49:59;100132.53;;;6.92;85.25
84888;BME280;75150;54.494;18.518;2024-03-22T09:52:02;100117.84;;;6.88;85.88
84888;BME280;75150;54.494;18.518;2024-03-22T09:54:05;100132.09;;;6.86;86.70
84888;BME280;75150;54.494;18.518;2024-03-22T09:56:07;100135.16;;;6.80;86.22
84888;BME280;75150;54.494;18.518;2024-03-22T09:58:10;100134.50;;;6.76;87.37
84888;BME280;75150;54.494;18.518;2024-03-22T10:00:13;100125.34;;;6.69;85.85
84888;BME280;75150;54.494;18.518;2024-03-22T10:02:15;100117.00;;;6.75;86.95
84888;BME280;75150;54.494;18.518;2024-03-22T10:04:17;100126.81;;;6.86;87.75
84888;BME280;75150;54.494;18.518;2024-03-22T10:06:19;100120.09;;;6.94;87.89
84888;BME280;75150;54.494;18.518;2024-03-22T10:08:20;100114.19;;;7.03;87.51
84888;BME280;75150;54.494;18.518;2024-03-22T10:10:22;100128.28;;;7.02;86.52
84888;BME280;75150;54.494;18.518;2024-03-22T10:12:23;100110.91;;;7.00;86.68
84888;BME280;75150;54.494;18.518;2024-03-22T10:14:27;100106.47;;;7.00;87.53
84888;BME280;75150;54.494;18.518;2024-03-22T10:16:33;100119.66;;;7.00;87.06
84888;BME280;75150;54.494;18.518;2024-03-22T10:18:35;100113.53;;;7.00;86.07
84888;BME280;75150;54.494;18.518;2024-03-22T10:20:36;100110.16;;;6.98;86.89
84888;BME280;75150;54.494;18.518;2024-03-22T10:22:38;100104.16;;;6.96;85.67
84888;BME280;75150;54.494;18.518;2024-03-22T10:24:42;100099.31;;;6.90;86.75
84888;BME280;75150;54.494;18.518;2024-03-22T10:26:43;100101.03;;;6.91;87.45
84888;BME280;75150;54.494;18.518;2024-03-22T10:28:45;100087.41;;;6.97;88.02
84888;BME280;75150;54.494;18.518;2024-03-22T10:30:50;100089.00;;;6.99;87.54
84888;BME280;75150;54.494;18.518;2024-03-22T10:32:52;100087.31;;;6.98;87.38
84888;BME280;75150;54.494;18.518;2024-03-22T10:34:53;100086.47;;;6.98;88.17
84888;BME280;75150;54.494;18.518;2024-03-22T10:36:55;100077.72;;;6.97;87.55